sensor_id;sensor_type;location;lat;lon;timestamp;temperature;humidity
12289;DHT22;6207;49.308;7.336;2022-09-01T00:00:01;14.40;99.90
12289;DHT22;6207;49.308;7.336;2022-09-01T00:02:29;14.30;99.90
12289;DHT22;6207;49.308;7.336;2022-09-01T00:04:56;14.30;99.90
12289;DHT22;6207;49.308;7.336;2022-09-01T00:07:26;14.30;99.90
12289;DHT22;6207;49.308;7.336;2022-09-01T00:09:55;14.30;99.90
12289;DHT22;6207;49.308;7.336;2022-09-01T00:12:22;14.20;99.90
12289;DHT22;6207;49.308;7.336;2022-09-01T00:14:51;14.20;99.90
12289;DHT22;6207;49.308;7.336;2022-09-01T00:17:18;14.20;99.90
12289;DHT22;6207;49.308;7.336;2022-09-01T00:19:45;14.40;99.90
12289;DHT22;6207;49.308;7.336;2022-09-01T00:22:12;14.20;99.90
12289;DHT22;6207;49.308;7.336;2022-09-01T00:24:39;14.20;99.90
12289;DHT22;6207;49.308;7.336;2022-09-01T00:27:06;14.20;99.90
12289;DHT22;6207;49.308;7.336;2022-09-01T00:29:33;14.10;99.90
12289;DHT22;6207;49.308;7.336;2022-09-01T00:31:59;14.10;99.90
12289;DHT22;6207;49.308;7.336;2022-09-01T00:34:26;14.00;99.90
12289;DHT22;6207;49.308;7.336;2022-09-01T00:36:53;14.00;99.90
12289;DHT22;6207;49.308;7.336;2022-09-01T00:39:20;14.00;99.90
12289;DHT22;6207;49.308;7.336;2022-09-01T00:41:47;14.00;99.90
12289;DHT22;6207;49.308;7.336;2022-09-01T00:44:19;13.90;99.90
12289;DHT22;6207;49.308;7.336;2022-09-01T00:46:51;13.90;99.90
12289;DHT22;6207;49.308;7.336;2022-09-01T00:52:16;13.90;99.90
12289;DHT22;6207;49.308;7.336;2022-09-01T00:54:48;13.80;99.90
12289;DHT22;6207;49.308;7.336;2022-09-01T00:57:16;13.80;99.90
12289;DHT22;6207;49.308;7.336;2022-09-01T01:00:07;13.80;99.90
12289;DHT22;6207;49.308;7.336;2022-09-01T01:02:38;13.80;99.90
12289;DHT22;6207;49.308;7.336;2022-09-01T01:05:07;13.70;99.90
12289;DHT22;6207;49.308;7.336;2022-09-01T01:07:41;13.70;99.90
12289;DHT22;6207;49.308;7.336;2022-09-01T01:10:14;13.60;99.90
12289;DHT22;6207;49.308;7.336;2022-09-01T01:12:41;13.70;99.90
12289;DHT22;6207;49.308;7.336;2022-09-01T01:15:11;13.60;99.90
12289;DHT22;6207;49.308;7.336;2022-09-01T01:17:39;13.60;99.90
12289;DHT22;6207;49.308;7.336;2022-09-01T01:20:07;13.60;99.90
12289;DHT22;6207;49.308;7.336;2022-09-01T01:25:36;13.60;99.90
12289;DHT22;6207;49.308;7.336;2022-09-01T01:30:51;13.60;99.90
12289;DHT22;6207;49.308;7.336;2022-09-01T01:33:21;13.60;99.90
12289;DHT22;6207;49.308;7.336;2022-09-01T01:35:51;13.70;99.90
12289;DHT22;6207;49.308;7.336;2022-09-01T01:38:18;13.60;99.90
12289;DHT22;6207;49.308;7.336;2022-09-01T01:40:49;13.50;99.90
12289;DHT22;6207;49.308;7.336;2022-09-01T01:43:17;13.50;99.90
12289;DHT22;6207;49.308;7.336;2022-09-01T01:45:48;13.40;99.90
12289;DHT22;6207;49.308;7.336;2022-09-01T01:48:21;13.40;99.90
12289;DHT22;6207;49.308;7.336;2022-09-01T01:50:51;13.30;99.90
12289;DHT22;6207;49.308;7.336;2022-09-01T01:53:19;13.30;99.90
12289;DHT22;6207;49.308;7.336;2022-09-01T01:55:47;13.20;99.90
12289;DHT22;6207;49.308;7.336;2022-09-01T01:58:20;13.20;99.90
12289;DHT22;6207;49.308;7.336;2022-09-01T02:00:48;13.20;99.90
12289;DHT22;6207;49.308;7.336;2022-09-01T02:03:32;13.20;99.90
12289;DHT22;6207;49.308;7.336;2022-09-01T02:06:06;13.20;99.90
12289;DHT22;6207;49.308;7.336;2022-09-01T02:08:35;13.20;99.90
12289;DHT22;6207;49.308;7.336;2022-09-01T02:11:04;13.10;99.90
12289;DHT22;6207;49.308;7.336;2022-09-01T02:13:31;13.20;99.90
12289;DHT22;6207;49.308;7.336;2022-09-01T02:16:01;13.30;99.90
12289;DHT22;6207;49.308;7.336;2022-09-01T02:18:37;13.30;99.90
12289;DHT22;6207;49.308;7.336;2022-09-01T02:21:06;13.40;99.90
12289;DHT22;6207;49.308;7.336;2022-09-01T02:23:42;13.50;99.90
12289;DHT22;6207;49.308;7.336;2022-09-01T02:26:09;13.50;99.90
12289;DHT22;6207;49.308;7.336;2022-09-01T02:28:46;13.50;99.90
12289;DHT22;6207;49.308;7.336;2022-09-01T02:31:20;13.60;99.90
12289;DHT22;6207;49.308;7.336;2022-09-01T02:33:48;13.50;99.90
12289;DHT22;6207;49.308;7.336;2022-09-01T02:36:17;13.40;99.90
12289;DHT22;6207;49.308;7.336;2022-09-01T02:38:46;13.30;99.90
12289;DHT22;6207;49.308;7.336;2022-09-01T02:41:19;13.20;99.90
12289;DHT22;6207;49.308;7.336;2022-09-01T02:43:49;13.20;99.90
12289;DHT22;6207;49.308;7.336;2022-09-01T02:46:16;13.20;99.90
12289;DHT22;6207;49.308;7.336;2022-09-01T02:48:43;13.10;99.90
12289;DHT22;6207;49.308;7.336;2022-09-01T02:51:14;13.10;99.90
12289;DHT22;6207;49.308;7.336;2022-09-01T02:53:43;13.10;99.90
12289;DHT22;6207;49.308;7.336;2022-09-01T02:56:15;13.10;99.90
12289;DHT22;6207;49.308;7.336;2022-09-01T02:58:46;13.00;99.90
12289;DHT22;6207;49.308;7.336;2022-09-01T03:01:14;13.00;99.90
12289;DHT22;6207;49.308;7.336;2022-09-01T03:03:45;12.90;99.90
12289;DHT22;6207;49.308;7.336;2022-09-01T03:06:12;12.90;99.90
12289;DHT22;6207;49.308;7.336;2022-09-01T03:08:40;12.90;99.90
12289;DHT22;6207;49.308;7.336;2022-09-01T03:11:07;12.80;99.90
12289;DHT22;6207;49.308;7.336;2022-09-01T03:13:40;12.80;99.90
12289;DHT22;6207;49.308;7.336;2022-09-01T03:16:07;12.80;99.90
12289;DHT22;6207;49.308;7.336;2022-09-01T03:18:35;12.80;99.90
12289;DHT22;6207;49.308;7.336;2022-09-01T03:21:03;12.80;99.90
12289;DHT22;6207;49.308;7.336;2022-09-01T03:23:31;12.80;99.90
12289;DHT22;6207;49.308;7.336;2022-09-01T03:26:00;12.70;99.90
12289;DHT22;6207;49.308;7.336;2022-09-01T03:28:28;12.70;99.90
12289;DHT22;6207;49.308;7.336;2022-09-01T03:30:56;12.90;99.90
12289;DHT22;6207;49.308;7.336;2022-09-01T03:33:25;12.70;99.90
12289;DHT22;6207;49.308;7.336;2022-09-01T03:35:55;12.70;99.90
12289;DHT22;6207;49.308;7.336;2022-09-01T03:38:23;12.70;99.90
12289;DHT22;6207;49.308;7.336;2022-09-01T03:40:52;12.80;99.90
12289;DHT22;6207;49.308;7.336;2022-09-01T03:43:20;12.60;99.90
12289;DHT22;6207;49.308;7.336;2022-09-01T03:46:00;12.60;99.90
12289;DHT22;6207;49.308;7.336;2022-09-01T03:48:28;12.60;99.90
12289;DHT22;6207;49.308;7.336;2022-09-01T03:50:57;12.70;99.90
12289;DHT22;6207;49.308;7.336;2022-09-01T03:53:31;12.60;99.90
12289;DHT22;6207;49.308;7.336;2022-09-01T03:55:59;12.50;99.90
12289;DHT22;6207;49.308;7.336;2022-09-01T03:58:27;12.50;99.90
12289;DHT22;6207;49.308;7.336;2022-09-01T04:00:56;12.50;99.90
12289;DHT22;6207;49.308;7.336;2022-09-01T04:03:25;12.50;99.90
12289;DHT22;6207;49.308;7.336;2022-09-01T04:05:55;12.50;99.90
12289;DHT22;6207;49.308;7.336;2022-09-01T04:08:22;12.50;99.90
12289;DHT22;6207;49.308;7.336;2022-09-01T04:11:08;12.50;99.90
12289;DHT22;6207;49.308;7.336;2022-09-01T04:13:38;12.40;99.90
12289;DHT22;6207;49.308;7.336;2022-09-01T04:16:14;12.40;99.90
12289;DHT22;6207;49.308;7.336;2022-09-01T04:19:02;12.40;99.90
12289;DHT22;6207;49.308;7.336;2022-09-01T04:21:42;12.40;99.90
12289;DHT22;6207;49.308;7.336;2022-09-01T04:24:09;12.40;99.90
12289;DHT22;6207;49.308;7.336;2022-09-01T04:26:39;12.40;99.90
12289;DHT22;6207;49.308;7.336;2022-09-01T04:29:06;12.50;99.90
12289;DHT22;6207;49.308;7.336;2022-09-01T04:31:35;12.50;99.90
12289;DHT22;6207;49.308;7.336;2022-09-01T04:34:05;12.60;99.90
12289;DHT22;6207;49.308;7.336;2022-09-01T04:36:40;12.60;99.90
12289;DHT22;6207;49.308;7.336;2022-09-01T04:39:08;12.60;99.90
12289;DHT22;6207;49.308;7.336;2022-09-01T04:41:41;12.50;99.90
12289;DHT22;6207;49.308;7.336;2022-09-01T04:44:08;12.40;99.90
12289;DHT22;6207;49.308;7.336;2022-09-01T04:46:38;12.50;99.90
12289;DHT22;6207;49.308;7.336;2022-09-01T04:49:08;12.40;99.90
12289;DHT22;6207;49.308;7.336;2022-09-01T04:51:44;12.30;99.90
12289;DHT22;6207;49.308;7.336;2022-09-01T04:54:19;12.40;99.90
12289;DHT22;6207;49.308;7.336;2022-09-01T04:56:47;12.40;99.90
12289;DHT22;6207;49.308;7.336;2022-09-01T04:59:21;12.40;99.90
12289;DHT22;6207;49.308;7.336;2022-09-01T05:01:49;12.40;99.90
12289;DHT22;6207;49.308;7.336;2022-09-01T05:04:20;12.40;99.90
12289;DHT22;6207;49.308;7.336;2022-09-01T05:06:51;12.40;99.90
12289;DHT22;6207;49.308;7.336;2022-09-01T05:09:22;12.30;99.90
12289;DHT22;6207;49.308;7.336;2022-09-01T05:48:01;13.40;99.90
12289;DHT22;6207;49.308;7.336;2022-09-01T09:43:37;20.20;1.00
12289;DHT22;6207;49.308;7.336;2022-09-01T09:46:23;20.70;1.00
12289;DHT22;6207;49.308;7.336;2022-09-01T09:51:39;21.30;1.00
12289;DHT22;6207;49.308;7.336;2022-09-01T09:54:25;21.30;1.00
12289;DHT22;6207;49.308;7.336;2022-09-01T09:59:48;21.80;1.00
12289;DHT22;6207;49.308;7.336;2022-09-01T10:02:38;21.80;1.00
12289;DHT22;6207;49.308;7.336;2022-09-01T10:05:38;21.40;1.00
12289;DHT22;6207;49.308;7.336;2022-09-01T10:11:04;21.00;1.00
12289;DHT22;6207;49.308;7.336;2022-09-01T10:13:33;21.40;1.00
12289;DHT22;6207;49.308;7.336;2022-09-01T10:16:06;21.70;1.00
12289;DHT22;6207;49.308;7.336;2022-09-01T10:18:44;21.50;1.00
12289;DHT22;6207;49.308;7.336;2022-09-01T10:21:40;21.10;1.00
12289;DHT22;6207;49.308;7.336;2022-09-01T10:24:35;20.80;1.00
12289;DHT22;6207;49.308;7.336;2022-09-01T10:27:28;21.10;1.00
12289;DHT22;6207;49.308;7.336;2022-09-01T10:30:10;21.40;1.00
12289;DHT22;6207;49.308;7.336;2022-09-01T10:32:57;21.20;1.00
12289;DHT22;6207;49.308;7.336;2022-09-01T10:35:46;21.00;1.00
12289;DHT22;6207;49.308;7.336;2022-09-01T10:38:26;21.30;1.00
12289;DHT22;6207;49.308;7.336;2022-09-01T10:41:53;21.20;1.00
12289;DHT22;6207;49.308;7.336;2022-09-01T10:44:34;21.10;1.00
12289;DHT22;6207;49.308;7.336;2022-09-01T10:47:24;21.20;1.00
12289;DHT22;6207;49.308;7.336;2022-09-01T10:49:58;21.20;1.00
12289;DHT22;6207;49.308;7.336;2022-09-01T10:55:38;21.40;1.00
12289;DHT22;6207;49.308;7.336;2022-09-01T10:58:31;21.60;1.00
12289;DHT22;6207;49.308;7.336;2022-09-01T11:04:20;21.20;1.00
12289;DHT22;6207;49.308;7.336;2022-09-01T11:09:43;21.80;99.90
12289;DHT22;6207;49.308;7.336;2022-09-01T11:17:36;22.40;99.90
12289;DHT22;6207;49.308;7.336;2022-09-01T11:20:26;22.90;99.90
12289;DHT22;6207;49.308;7.336;2022-09-01T11:25:52;22.40;99.90
12289;DHT22;6207;49.308;7.336;2022-09-01T11:28:40;22.50;99.90
12289;DHT22;6207;49.308;7.336;2022-09-01T11:31:28;22.80;99.90
12289;DHT22;6207;49.308;7.336;2022-09-01T11:42:11;21.70;99.90
12289;DHT22;6207;49.308;7.336;2022-09-01T11:45:27;21.50;99.90
12289;DHT22;6207;49.308;7.336;2022-09-01T11:48:10;21.40;99.90
12289;DHT22;6207;49.308;7.336;2022-09-01T11:50:40;21.90;99.90
12289;DHT22;6207;49.308;7.336;2022-09-01T11:53:13;22.30;99.90
12289;DHT22;6207;49.308;7.336;2022-09-01T11:55:48;22.80;99.90
12289;DHT22;6207;49.308;7.336;2022-09-01T11:58:30;22.90;99.90
12289;DHT22;6207;49.308;7.336;2022-09-01T12:03:56;23.20;99.90
12289;DHT22;6207;49.308;7.336;2022-09-01T12:06:26;22.90;99.90
12289;DHT22;6207;49.308;7.336;2022-09-01T12:08:58;23.10;99.90
12289;DHT22;6207;49.308;7.336;2022-09-01T12:11:28;23.20;99.90
12289;DHT22;6207;49.308;7.336;2022-09-01T12:14:03;23.00;99.90
12289;DHT22;6207;49.308;7.336;2022-09-01T12:16:38;23.00;99.90
12289;DHT22;6207;49.308;7.336;2022-09-01T12:19:22;22.90;99.90
12289;DHT22;6207;49.308;7.336;2022-09-01T12:22:14;22.50;99.90
12289;DHT22;6207;49.308;7.336;2022-09-01T12:24:52;22.20;99.90
12289;DHT22;6207;49.308;7.336;2022-09-01T12:27:29;22.30;99.90
12289;DHT22;6207;49.308;7.336;2022-09-01T12:29:56;22.10;99.90
12289;DHT22;6207;49.308;7.336;2022-09-01T12:32:25;22.30;99.90
12289;DHT22;6207;49.308;7.336;2022-09-01T12:35:01;22.10;99.90
12289;DHT22;6207;49.308;7.336;2022-09-01T12:37:44;21.90;99.90
